sensor_id;sensor_type;location;lat;lon;timestamp;temperature;humidity
44435;DHT22;30138;20.964;105.830;2022-10-30T00:02:18;28.60;99.90
44435;DHT22;30138;20.964;105.830;2022-10-30T00:07:28;28.60;99.90
44435;DHT22;30138;20.964;105.830;2022-10-30T00:12:35;28.60;99.90
44435;DHT22;30138;20.964;105.830;2022-10-30T00:17:41;28.60;99.90
44435;DHT22;30138;20.964;105.830;2022-10-30T00:22:52;28.60;99.90
44435;DHT22;30138;20.964;105.830;2022-10-30T00:27:59;28.60;99.90
44435;DHT22;30138;20.964;105.830;2022-10-30T00:33:06;28.60;99.90
44435;DHT22;30138;20.964;105.830;2022-10-30T00:38:15;28.60;99.90
44435;DHT22;30138;20.964;105.830;2022-10-30T00:43:32;28.60;99.90
44435;DHT22;30138;20.964;105.830;2022-10-30T00:48:41;28.60;99.90
44435;DHT22;30138;20.964;105.830;2022-10-30T00:53:50;28.60;99.90
44435;DHT22;30138;20.964;105.830;2022-10-30T00:58:59;28.60;99.90
44435;DHT22;30138;20.964;105.830;2022-10-30T01:04:07;28.60;99.90
44435;DHT22;30138;20.964;105.830;2022-10-30T01:09:17;28.70;99.90
44435;DHT22;30138;20.964;105.830;2022-10-30T01:14:25;28.80;99.90
44435;DHT22;30138;20.964;105.830;2022-10-30T01:19:38;28.90;99.90
44435;DHT22;30138;20.964;105.830;2022-10-30T01:25:01;29.00;99.90
44435;DHT22;30138;20.964;105.830;2022-10-30T01:30:28;29.10;99.90
44435;DHT22;30138;20.964;105.830;2022-10-30T01:35:46;29.20;99.90
44435;DHT22;30138;20.964;105.830;2022-10-30T01:40:59;29.20;99.90
44435;DHT22;30138;20.964;105.830;2022-10-30T01:46:24;29.40;99.90
44435;DHT22;30138;20.964;105.830;2022-10-30T01:51:53;29.40;99.90
44435;DHT22;30138;20.964;105.830;2022-10-30T01:57:10;29.50;99.80
44435;DHT22;30138;20.964;105.830;2022-10-30T02:02:21;29.50;99.60
44435;DHT22;30138;20.964;105.830;2022-10-30T02:07:30;29.60;99.50
44435;DHT22;30138;20.964;105.830;2022-10-30T02:12:39;29.60;99.70
44435;DHT22;30138;20.964;105.830;2022-10-30T02:17:48;29.70;99.40
44435;DHT22;30138;20.964;105.830;2022-10-30T02:22:57;29.70;99.20
44435;DHT22;30138;20.964;105.830;2022-10-30T02:28:08;29.70;99.10
44435;DHT22;30138;20.964;105.830;2022-10-30T02:33:18;29.80;99.00
44435;DHT22;30138;20.964;105.830;2022-10-30T02:38:28;29.80;98.90
44435;DHT22;30138;20.964;105.830;2022-10-30T02:43:35;29.80;98.70
44435;DHT22;30138;20.964;105.830;2022-10-30T02:48:45;29.80;98.60
44435;DHT22;30138;20.964;105.830;2022-10-30T02:53:54;29.80;98.50
44435;DHT22;30138;20.964;105.830;2022-10-30T02:59:02;29.80;98.30
44435;DHT22;30138;20.964;105.830;2022-10-30T03:04:10;29.90;98.40
44435;DHT22;30138;20.964;105.830;2022-10-30T03:09:20;29.90;98.30
44435;DHT22;30138;20.964;105.830;2022-10-30T03:14:39;29.90;98.00
44435;DHT22;30138;20.964;105.830;2022-10-30T03:19:58;29.90;97.90
44435;DHT22;30138;20.964;105.830;2022-10-30T03:25:09;29.90;97.70
44435;DHT22;30138;20.964;105.830;2022-10-30T03:30:16;29.90;97.60
44435;DHT22;30138;20.964;105.830;2022-10-30T03:35:36;29.90;97.50
44435;DHT22;30138;20.964;105.830;2022-10-30T03:40:45;29.90;97.40
44435;DHT22;30138;20.964;105.830;2022-10-30T03:45:54;30.00;97.20
44435;DHT22;30138;20.964;105.830;2022-10-30T03:51:01;30.00;97.10
44435;DHT22;30138;20.964;105.830;2022-10-30T03:56:12;30.00;96.90
44435;DHT22;30138;20.964;105.830;2022-10-30T04:01:24;30.10;96.90
44435;DHT22;30138;20.964;105.830;2022-10-30T04:06:33;30.10;96.70
44435;DHT22;30138;20.964;105.830;2022-10-30T04:11:44;30.20;96.60
44435;DHT22;30138;20.964;105.830;2022-10-30T04:16:52;30.20;96.40
44435;DHT22;30138;20.964;105.830;2022-10-30T04:21:59;30.20;96.30
44435;DHT22;30138;20.964;105.830;2022-10-30T04:27:09;30.20;96.20
44435;DHT22;30138;20.964;105.830;2022-10-30T04:32:17;30.30;96.40
44435;DHT22;30138;20.964;105.830;2022-10-30T04:37:23;30.30;96.10
44435;DHT22;30138;20.964;105.830;2022-10-30T04:42:32;30.30;96.00
44435;DHT22;30138;20.964;105.830;2022-10-30T04:47:39;30.40;95.80
44435;DHT22;30138;20.964;105.830;2022-10-30T04:52:48;30.40;95.70
44435;DHT22;30138;20.964;105.830;2022-10-30T04:58:07;30.40;95.20
44435;DHT22;30138;20.964;105.830;2022-10-30T05:03:19;30.50;95.30
44435;DHT22;30138;20.964;105.830;2022-10-30T05:08:28;30.50;94.80
44435;DHT22;30138;20.964;105.830;2022-10-30T05:13:42;30.50;94.90
44435;DHT22;30138;20.964;105.830;2022-10-30T05:18:49;30.50;94.60
44435;DHT22;30138;20.964;105.830;2022-10-30T05:23:57;30.50;94.60
44435;DHT22;30138;20.964;105.830;2022-10-30T05:29:14;30.50;94.60
44435;DHT22;30138;20.964;105.830;2022-10-30T05:34:22;30.50;94.70
44435;DHT22;30138;20.964;105.830;2022-10-30T05:39:30;30.60;94.80
44435;DHT22;30138;20.964;105.830;2022-10-30T05:44:41;30.60;94.60
44435;DHT22;30138;20.964;105.830;2022-10-30T05:49:49;30.60;94.50
44435;DHT22;30138;20.964;105.830;2022-10-30T05:55:00;30.70;94.60
44435;DHT22;30138;20.964;105.830;2022-10-30T06:00:42;30.70;94.50
44435;DHT22;30138;20.964;105.830;2022-10-30T06:05:55;30.70;94.60
44435;DHT22;30138;20.964;105.830;2022-10-30T06:11:02;30.70;94.50
44435;DHT22;30138;20.964;105.830;2022-10-30T06:16:18;30.70;94.20
44435;DHT22;30138;20.964;105.830;2022-10-30T06:21:43;30.70;94.20
44435;DHT22;30138;20.964;105.830;2022-10-30T06:26:58;30.80;94.20
44435;DHT22;30138;20.964;105.830;2022-10-30T06:32:08;30.80;94.10
44435;DHT22;30138;20.964;105.830;2022-10-30T06:37:17;30.80;93.60
44435;DHT22;30138;20.964;105.830;2022-10-30T06:42:25;30.90;93.50
44435;DHT22;30138;20.964;105.830;2022-10-30T06:47:47;30.90;93.60
44435;DHT22;30138;20.964;105.830;2022-10-30T06:52:55;30.90;93.60
44435;DHT22;30138;20.964;105.830;2022-10-30T06:58:04;30.90;93.20
44435;DHT22;30138;20.964;105.830;2022-10-30T07:03:24;30.90;93.10
44435;DHT22;30138;20.964;105.830;2022-10-30T07:08:35;30.90;93.20
44435;DHT22;30138;20.964;105.830;2022-10-30T07:13:46;31.00;93.50
44435;DHT22;30138;20.964;105.830;2022-10-30T07:19:24;30.90;93.40
44435;DHT22;30138;20.964;105.830;2022-10-30T07:24:53;30.90;93.00
44435;DHT22;30138;20.964;105.830;2022-10-30T07:30:32;30.80;93.30
44435;DHT22;30138;20.964;105.830;2022-10-30T07:36:00;30.80;93.20
44435;DHT22;30138;20.964;105.830;2022-10-30T07:41:21;30.80;93.10
44435;DHT22;30138;20.964;105.830;2022-10-30T07:46:47;30.80;92.80
44435;DHT22;30138;20.964;105.830;2022-10-30T07:52:05;30.70;92.90
44435;DHT22;30138;20.964;105.830;2022-10-30T07:57:12;30.70;92.60
44435;DHT22;30138;20.964;105.830;2022-10-30T08:02:38;30.70;92.70
44435;DHT22;30138;20.964;105.830;2022-10-30T08:08:08;30.70;92.50
44435;DHT22;30138;20.964;105.830;2022-10-30T08:13:16;30.60;92.40
44435;DHT22;30138;20.964;105.830;2022-10-30T08:18:27;30.60;92.60
44435;DHT22;30138;20.964;105.830;2022-10-30T08:23:37;30.60;92.40
44435;DHT22;30138;20.964;105.830;2022-10-30T08:28:50;30.60;92.30
44435;DHT22;30138;20.964;105.830;2022-10-30T08:34:00;30.60;92.60
44435;DHT22;30138;20.964;105.830;2022-10-30T08:39:28;30.70;92.40
44435;DHT22;30138;20.964;105.830;2022-10-30T08:44:49;30.70;92.80
44435;DHT22;30138;20.964;105.830;2022-10-30T08:50:16;30.70;92.90
44435;DHT22;30138;20.964;105.830;2022-10-30T08:55:25;30.70;92.90
44435;DHT22;30138;20.964;105.830;2022-10-30T09:00:35;30.70;92.80
44435;DHT22;30138;20.964;105.830;2022-10-30T09:05:48;30.70;92.70
44435;DHT22;30138;20.964;105.830;2022-10-30T09:11:17;30.70;92.70
44435;DHT22;30138;20.964;105.830;2022-10-30T09:16:24;30.70;92.40
44435;DHT22;30138;20.964;105.830;2022-10-30T09:21:32;30.70;92.70
44435;DHT22;30138;20.964;105.830;2022-10-30T09:26:42;30.70;92.40
44435;DHT22;30138;20.964;105.830;2022-10-30T09:31:58;30.60;92.60
44435;DHT22;30138;20.964;105.830;2022-10-30T09:37:08;30.60;92.50
44435;DHT22;30138;20.964;105.830;2022-10-30T09:42:46;30.60;92.50
44435;DHT22;30138;20.964;105.830;2022-10-30T09:53:52;30.60;92.60
44435;DHT22;30138;20.964;105.830;2022-10-30T09:59:25;30.60;92.60
44435;DHT22;30138;20.964;105.830;2022-10-30T10:04:40;30.60;92.80
44435;DHT22;30138;20.964;105.830;2022-10-30T10:09:51;30.50;92.80
44435;DHT22;30138;20.964;105.830;2022-10-30T10:15:39;30.50;92.90
44435;DHT22;30138;20.964;105.830;2022-10-30T10:20:49;30.50;93.00
44435;DHT22;30138;20.964;105.830;2022-10-30T10:25:59;30.50;93.30
44435;DHT22;30138;20.964;105.830;2022-10-30T10:31:22;30.50;93.20
44435;DHT22;30138;20.964;105.830;2022-10-30T10:36:40;30.50;93.30
44435;DHT22;30138;20.964;105.830;2022-10-30T10:42:01;30.40;93.30
44435;DHT22;30138;20.964;105.830;2022-10-30T10:47:38;30.50;93.20
44435;DHT22;30138;20.964;105.830;2022-10-30T10:53:09;30.40;93.10
44435;DHT22;30138;20.964;105.830;2022-10-30T10:58:26;30.40;93.20
44435;DHT22;30138;20.964;105.830;2022-10-30T11:03:45;30.40;93.30
44435;DHT22;30138;20.964;105.830;2022-10-30T11:09:13;30.40;93.20
44435;DHT22;30138;20.964;105.830;2022-10-30T11:14:21;30.40;93.00
44435;DHT22;30138;20.964;105.830;2022-10-30T11:19:32;30.40;93.10
44435;DHT22;30138;20.964;105.830;2022-10-30T11:24:39;30.40;93.20
44435;DHT22;30138;20.964;105.830;2022-10-30T11:29:53;30.40;93.20
44435;DHT22;30138;20.964;105.830;2022-10-30T11:35:11;30.40;93.20
44435;DHT22;30138;20.964;105.830;2022-10-30T11:40:21;30.40;93.20
44435;DHT22;30138;20.964;105.830;2022-10-30T11:45:30;30.40;93.30
44435;DHT22;30138;20.964;105.830;2022-10-30T11:50:46;30.40;93.30
44435;DHT22;30138;20.964;105.830;2022-10-30T11:55:54;30.40;93.30
44435;DHT22;30138;20.964;105.830;2022-10-30T12:01:03;30.40;93.40
44435;DHT22;30138;20.964;105.830;2022-10-30T12:06:17;30.40;93.40
44435;DHT22;30138;20.964;105.830;2022-10-30T12:11:31;30.30;93.40
44435;DHT22;30138;20.964;105.830;2022-10-30T12:16:44;30.30;93.40
44435;DHT22;30138;20.964;105.830;2022-10-30T12:21:55;30.30;93.50
44435;DHT22;30138;20.964;105.830;2022-10-30T12:27:09;30.30;93.50
44435;DHT22;30138;20.964;105.830;2022-10-30T12:32:19;30.30;93.50
44435;DHT22;30138;20.964;105.830;2022-10-30T12:37:33;30.30;93.50
44435;DHT22;30138;20.964;105.830;2022-10-30T12:42:50;30.30;93.50
44435;DHT22;30138;20.964;105.830;2022-10-30T12:48:04;30.30;93.50
44435;DHT22;30138;20.964;105.830;2022-10-30T12:53:23;30.30;93.60
44435;DHT22;30138;20.964;105.830;2022-10-30T12:58:40;30.30;93.60
44435;DHT22;30138;20.964;105.830;2022-10-30T13:03:54;30.30;93.60
44435;DHT22;30138;20.964;105.830;2022-10-30T13:09:11;30.30;93.60
44435;DHT22;30138;20.964;105.830;2022-10-30T13:14:30;30.30;93.50
44435;DHT22;30138;20.964;105.830;2022-10-30T13:19:42;30.30;93.70
44435;DHT22;30138;20.964;105.830;2022-10-30T13:25:01;30.30;93.70
44435;DHT22;30138;20.964;105.830;2022-10-30T13:30:14;30.30;93.70
44435;DHT22;30138;20.964;105.830;2022-10-30T13:35:29;30.30;93.70
44435;DHT22;30138;20.964;105.830;2022-10-30T13:40:45;30.30;93.70
44435;DHT22;30138;20.964;105.830;2022-10-30T13:46:07;30.20;93.70
44435;DHT22;30138;20.964;105.830;2022-10-30T13:51:43;30.30;93.70
44435;DHT22;30138;20.964;105.830;2022-10-30T13:56:55;30.20;93.70
44435;DHT22;30138;20.964;105.830;2022-10-30T14:02:15;30.20;93.70
44435;DHT22;30138;20.964;105.830;2022-10-30T14:07:31;30.20;93.50
44435;DHT22;30138;20.964;105.830;2022-10-30T14:12:50;30.20;93.70
44435;DHT22;30138;20.964;105.830;2022-10-30T14:18:25;30.20;93.60
44435;DHT22;30138;20.964;105.830;2022-10-30T14:23:36;30.20;93.60
44435;DHT22;30138;20.964;105.830;2022-10-30T14:28:45;30.20;93.60
44435;DHT22;30138;20.964;105.830;2022-10-30T14:33:57;30.20;93.80
44435;DHT22;30138;20.964;105.830;2022-10-30T14:39:25;30.20;93.70
44435;DHT22;30138;20.964;105.830;2022-10-30T14:50:32;30.20;93.80
44435;DHT22;30138;20.964;105.830;2022-10-30T14:56:03;30.20;93.80
44435;DHT22;30138;20.964;105.830;2022-10-30T15:01:32;30.20;93.70
44435;DHT22;30138;20.964;105.830;2022-10-30T15:06:53;30.10;93.60
44435;DHT22;30138;20.964;105.830;2022-10-30T15:12:19;30.10;93.50
44435;DHT22;30138;20.964;105.830;2022-10-30T15:17:36;30.10;93.30
44435;DHT22;30138;20.964;105.830;2022-10-30T15:22:46;30.10;93.10
44435;DHT22;30138;20.964;105.830;2022-10-30T15:27:56;30.10;92.70
44435;DHT22;30138;20.964;105.830;2022-10-30T15:33:18;30.10;92.50
44435;DHT22;30138;20.964;105.830;2022-10-30T15:38:28;30.10;92.30
44435;DHT22;30138;20.964;105.830;2022-10-30T15:43:37;30.10;91.90
44435;DHT22;30138;20.964;105.830;2022-10-30T15:48:48;30.10;92.00
44435;DHT22;30138;20.964;105.830;2022-10-30T15:53:57;30.10;91.80
44435;DHT22;30138;20.964;105.830;2022-10-30T15:59:06;30.00;91.50
44435;DHT22;30138;20.964;105.830;2022-10-30T16:04:23;30.00;91.30
44435;DHT22;30138;20.964;105.830;2022-10-30T16:09:31;30.00;91.10
44435;DHT22;30138;20.964;105.830;2022-10-30T16:14:38;30.00;90.90
44435;DHT22;30138;20.964;105.830;2022-10-30T16:19:50;30.00;90.80
44435;DHT22;30138;20.964;105.830;2022-10-30T16:25:00;30.00;90.60
44435;DHT22;30138;20.964;105.830;2022-10-30T16:30:12;30.00;90.50
44435;DHT22;30138;20.964;105.830;2022-10-30T16:35:22;30.00;90.50
44435;DHT22;30138;20.964;105.830;2022-10-30T16:40:30;29.90;90.40
44435;DHT22;30138;20.964;105.830;2022-10-30T16:45:50;30.00;90.30
44435;DHT22;30138;20.964;105.830;2022-10-30T16:51:04;30.00;90.30
44435;DHT22;30138;20.964;105.830;2022-10-30T16:56:21;29.90;90.30
44435;DHT22;30138;20.964;105.830;2022-10-30T17:01:29;29.90;90.30
44435;DHT22;30138;20.964;105.830;2022-10-30T17:06:40;29.90;90.30
44435;DHT22;30138;20.964;105.830;2022-10-30T17:11:59;29.90;90.10
44435;DHT22;30138;20.964;105.830;2022-10-30T17:17:36;29.90;90.00
44435;DHT22;30138;20.964;105.830;2022-10-30T17:22:49;29.80;89.80
44435;DHT22;30138;20.964;105.830;2022-10-30T17:28:25;29.90;90.00
44435;DHT22;30138;20.964;105.830;2022-10-30T17:33:35;29.90;89.60
44435;DHT22;30138;20.964;105.830;2022-10-30T17:38:44;29.80;89.30
44435;DHT22;30138;20.964;105.830;2022-10-30T17:43:54;29.80;89.20
44435;DHT22;30138;20.964;105.830;2022-10-30T17:49:03;29.80;89.20
44435;DHT22;30138;20.964;105.830;2022-10-30T17:54:31;29.80;89.20
44435;DHT22;30138;20.964;105.830;2022-10-30T17:59:41;29.80;89.00
44435;DHT22;30138;20.964;105.830;2022-10-30T18:04:49;29.70;89.00
44435;DHT22;30138;20.964;105.830;2022-10-30T18:09:58;29.80;88.90
44435;DHT22;30138;20.964;105.830;2022-10-30T18:15:26;29.80;89.20
44435;DHT22;30138;20.964;105.830;2022-10-30T18:20:34;29.70;88.80
44435;DHT22;30138;20.964;105.830;2022-10-30T18:25:44;29.70;88.70
44435;DHT22;30138;20.964;105.830;2022-10-30T18:30:53;29.70;88.70
44435;DHT22;30138;20.964;105.830;2022-10-30T18:36:04;29.70;88.60
44435;DHT22;30138;20.964;105.830;2022-10-30T18:41:23;29.70;88.40
44435;DHT22;30138;20.964;105.830;2022-10-30T18:46:33;29.70;88.10
44435;DHT22;30138;20.964;105.830;2022-10-30T18:51:40;29.60;87.80
44435;DHT22;30138;20.964;105.830;2022-10-30T18:56:49;29.70;87.90
44435;DHT22;30138;20.964;105.830;2022-10-30T19:01:57;29.60;87.70
44435;DHT22;30138;20.964;105.830;2022-10-30T19:07:04;29.60;87.50
44435;DHT22;30138;20.964;105.830;2022-10-30T19:12:14;29.60;87.40
44435;DHT22;30138;20.964;105.830;2022-10-30T19:17:21;29.60;87.60
44435;DHT22;30138;20.964;105.830;2022-10-30T19:22:28;29.60;87.70
44435;DHT22;30138;20.964;105.830;2022-10-30T19:27:37;29.60;88.40
44435;DHT22;30138;20.964;105.830;2022-10-30T19:32:44;29.50;87.90
44435;DHT22;30138;20.964;105.830;2022-10-30T19:37:51;29.50;87.90
44435;DHT22;30138;20.964;105.830;2022-10-30T19:43:01;29.50;87.80
44435;DHT22;30138;20.964;105.830;2022-10-30T19:48:13;29.50;87.70
44435;DHT22;30138;20.964;105.830;2022-10-30T19:53:22;29.50;87.80
44435;DHT22;30138;20.964;105.830;2022-10-30T19:58:33;29.50;88.00
44435;DHT22;30138;20.964;105.830;2022-10-30T20:03:39;29.50;87.90
44435;DHT22;30138;20.964;105.830;2022-10-30T20:08:48;29.50;87.80
44435;DHT22;30138;20.964;105.830;2022-10-30T20:13:57;29.50;87.80
44435;DHT22;30138;20.964;105.830;2022-10-30T20:19:22;29.40;87.60
44435;DHT22;30138;20.964;105.830;2022-10-30T20:24:32;29.40;87.30
44435;DHT22;30138;20.964;105.830;2022-10-30T20:29:42;29.40;87.20
44435;DHT22;30138;20.964;105.830;2022-10-30T20:34:50;29.40;86.80
44435;DHT22;30138;20.964;105.830;2022-10-30T20:39:57;29.40;86.70
44435;DHT22;30138;20.964;105.830;2022-10-30T20:45:10;29.40;87.00
44435;DHT22;30138;20.964;105.830;2022-10-30T20:50:21;29.40;86.60
44435;DHT22;30138;20.964;105.830;2022-10-30T20:55:28;29.30;86.40
44435;DHT22;30138;20.964;105.830;2022-10-30T21:00:38;29.30;86.40
44435;DHT22;30138;20.964;105.830;2022-10-30T21:05:52;29.30;85.90
44435;DHT22;30138;20.964;105.830;2022-10-30T21:11:00;29.20;85.60
44435;DHT22;30138;20.964;105.830;2022-10-30T21:16:11;29.20;85.40
44435;DHT22;30138;20.964;105.830;2022-10-30T21:21:18;29.20;85.20
44435;DHT22;30138;20.964;105.830;2022-10-30T21:26:26;29.20;85.10
44435;DHT22;30138;20.964;105.830;2022-10-30T21:31:36;29.20;85.40
44435;DHT22;30138;20.964;105.830;2022-10-30T21:36:43;29.20;85.30
44435;DHT22;30138;20.964;105.830;2022-10-30T21:41:51;29.20;85.50
44435;DHT22;30138;20.964;105.830;2022-10-30T21:47:01;29.10;85.40
44435;DHT22;30138;20.964;105.830;2022-10-30T21:52:10;29.10;85.20
44435;DHT22;30138;20.964;105.830;2022-10-30T21:57:17;29.10;85.60
44435;DHT22;30138;20.964;105.830;2022-10-30T22:02:27;29.10;85.60
44435;DHT22;30138;20.964;105.830;2022-10-30T22:07:34;29.10;85.60
44435;DHT22;30138;20.964;105.830;2022-10-30T22:12:41;29.00;85.00
44435;DHT22;30138;20.964;105.830;2022-10-30T22:17:51;29.10;85.10
44435;DHT22;30138;20.964;105.830;2022-10-30T22:22:57;29.00;84.30
44435;DHT22;30138;20.964;105.830;2022-10-30T22:28:05;29.00;84.40
44435;DHT22;30138;20.964;105.830;2022-10-30T22:33:13;29.00;84.90
44435;DHT22;30138;20.964;105.830;2022-10-30T22:38:21;29.00;84.60
44435;DHT22;30138;20.964;105.830;2022-10-30T22:43:28;28.90;84.80
44435;DHT22;30138;20.964;105.830;2022-10-30T22:48:37;28.90;84.80
44435;DHT22;30138;20.964;105.830;2022-10-30T22:53:46;28.90;84.70
44435;DHT22;30138;20.964;105.830;2022-10-30T22:59:00;28.90;85.90
44435;DHT22;30138;20.964;105.830;2022-10-30T23:04:10;28.90;84.80
44435;DHT22;30138;20.964;105.830;2022-10-30T23:09:18;28.90;86.60
44435;DHT22;30138;20.964;105.830;2022-10-30T23:14:27;28.90;84.50
44435;DHT22;30138;20.964;105.830;2022-10-30T23:19:37;28.90;84.80
44435;DHT22;30138;20.964;105.830;2022-10-30T23:24:44;28.80;84.40
44435;DHT22;30138;20.964;105.830;2022-10-30T23:29:53;28.80;86.20
44435;DHT22;30138;20.964;105.830;2022-10-30T23:35:05;28.80;85.40
44435;DHT22;30138;20.964;105.830;2022-10-30T23:40:13;28.80;86.00
44435;DHT22;30138;20.964;105.830;2022-10-30T23:45:19;28.80;86.10
44435;DHT22;30138;20.964;105.830;2022-10-30T23:50:29;28.80;84.90
44435;DHT22;30138;20.964;105.830;2022-10-30T23:55:36;28.80;86.70
